Zephyrhills, FL

10:12 PM EST on November 21, 2014 (GMT -0500)
Southern Charm | Change Station
CLOSE
Current Station
Personal Weather Station
Location: Zephyrhills, FL
Elevation: 125 ft
Nearby Weather Stations

Elev 125 ft 28.21 °N, 82.19 °W | Updated 0 second ago

Overcast
Overcast
63.2 °F
Feels Like 63.2 °F
N
2.0
Wind Variable Wind from NE
Gusts 3.4 mph

Today
High -- | Low -- °F
--% Chance of Precip.
Yesterday
High -- | Low -- °F
Precip. -- in
6:55 AM 5:33 PM
Waning Crescent, 0% visible
Pressure 30.28 in
Visibility 10.0 miles
Clouds Overcast 8500 ft
Dew Point 54 °F
Humidity 72%
Rainfall 0.00 in
Snow Depth Not available.
UV 0 out of 12
Pollen 4.30 out of 12
Air Quality Not available.
Flu Activity Not available.
METAR KZPH 220255Z AUTO 03006KT 10SM OVC085 17/10 A3028 RMK AO2

More Conditions Fewer Conditions

Pressure 30.28 in
Visibility 10.0 miles
Clouds Overcast 8500 ft
Dew Point 54 °F
Humidity 72%
Rainfall 0.00 in
Snow Depth Not available.
UV 0 out of 12
Pollen 4.30 out of 12
Air Quality Not available.
Flu Activity Not available.
METAR KZPH 220255Z AUTO 03006KT 10SM OVC085 17/10 A3028 RMK AO2

More Conditions Fewer Conditions

10-Day Weather Forecast

Almanac

Astronomy

Nov. 21, 2014 Rise Set
Actual Time
Civil Twilight
Nautical Twilight
Astronomical Twilight
Moon
Length of Visible Light
Length of Day
Tomorrow will be .
, % of the Moon is Illuminated

Today's Extremes

State Highs State Lows

Community

WunderPhotos

Upload Photos

1,772,771 photos uploaded!

WunderBlogs® & News

Nearby

Air Quality

  Air Quality AQ Index Pollutant
Not available.

Snow Depth

Station Depth Elevation

Earthquake Activity

City Distance Mag. Time & Date
Minimum magnitude displayed is 2.5.

Coastal Water Temperatures

Place Temperature

Nearby Weather Stations